createdAt,value
2023-03-12T00:01:21.448Z,99.50
2023-03-12T00:04:10.780Z,99.40
2023-03-12T00:07:00.175Z,99.40
2023-03-12T00:09:49.469Z,99.40
2023-03-12T00:12:38.776Z,99.50
2023-03-12T00:15:28.994Z,99.50
2023-03-12T00:18:19.761Z,99.50
2023-03-12T00:21:10.014Z,99.40
2023-03-12T00:23:59.377Z,99.50
2023-03-12T00:26:49.103Z,99.50
2023-03-12T00:29:38.369Z,99.50
2023-03-12T00:32:27.710Z,99.60
2023-03-12T00:35:18.579Z,99.70
2023-03-12T00:38:07.952Z,99.80
2023-03-12T00:40:57.315Z,99.90
2023-03-12T00:43:46.754Z,99.90
2023-03-12T00:46:36.111Z,99.90
2023-03-12T00:49:25.413Z,99.80
2023-03-12T00:52:16.146Z,99.60
2023-03-12T00:55:06.221Z,99.60
2023-03-12T00:57:55.542Z,99.60
2023-03-12T01:00:45.084Z,99.70
2023-03-12T01:03:34.610Z,99.60
2023-03-12T01:06:23.993Z,99.50
2023-03-12T01:09:14.962Z,99.40
2023-03-12T01:12:04.533Z,99.40
2023-03-12T01:14:53.902Z,99.40
2023-03-12T01:17:43.279Z,99.50
2023-03-12T01:20:32.659Z,99.60
2023-03-12T01:23:20.308Z,99.60
2023-03-12T01:26:09.397Z,99.70
2023-03-12T01:28:58.895Z,99.70
2023-03-12T01:31:46.991Z,99.80
2023-03-12T01:34:35.619Z,99.80
2023-03-12T01:37:24.944Z,99.80
2023-03-12T01:40:17.572Z,99.80
2023-03-12T01:43:30.510Z,99.70
2023-03-12T01:46:27.824Z,99.20
2023-03-12T01:49:21.547Z,99.20
2023-03-12T01:52:15.595Z,99.30
2023-03-12T01:55:15.799Z,99.30
2023-03-12T01:58:08.187Z,99.30
2023-03-12T02:00:59.085Z,99.40
2023-03-12T02:03:53.139Z,99.40
2023-03-12T02:06:49.639Z,99.40
2023-03-12T02:09:43.600Z,99.40
2023-03-12T02:12:33.272Z,99.40
2023-03-12T02:15:23.559Z,99.50
2023-03-12T02:18:18.742Z,99.50
2023-03-12T02:21:17.415Z,99.40
2023-03-12T02:24:16.809Z,99.30
2023-03-12T02:27:09.360Z,99.50
2023-03-12T02:29:58.828Z,99.50
2023-03-12T02:32:49.935Z,99.70
2023-03-12T02:35:40.119Z,99.60
2023-03-12T02:38:43.595Z,99.50
2023-03-12T02:41:35.868Z,99.20
2023-03-12T02:44:29.275Z,99.50
2023-03-12T02:47:18.683Z,99.50
2023-03-12T02:50:09.739Z,99.60
2023-03-12T02:52:59.125Z,99.60
2023-03-12T02:55:48.597Z,99.60
2023-03-12T02:58:37.900Z,99.60
2023-03-12T03:01:29.511Z,99.50
2023-03-12T03:04:18.908Z,99.40
2023-03-12T03:07:08.371Z,99.50
2023-03-12T03:10:03.933Z,99.50
2023-03-12T03:12:51.631Z,99.60
2023-03-12T03:15:40.073Z,99.50
2023-03-12T03:18:30.162Z,99.50
2023-03-12T03:21:19.090Z,99.30
2023-03-12T03:24:08.991Z,99.40
2023-03-12T03:26:56.772Z,99.40
2023-03-12T03:29:46.199Z,99.40
2023-03-12T03:32:35.584Z,99.30
2023-03-12T03:35:26.468Z,99.10
2023-03-12T03:38:15.859Z,99.00
2023-03-12T03:41:05.702Z,99.10
2023-03-12T03:43:59.321Z,99.30
2023-03-12T03:46:49.937Z,99.60
2023-03-12T03:49:39.284Z,99.40
2023-03-12T03:52:29.992Z,99.50
2023-03-12T03:55:19.851Z,99.30
2023-03-12T03:58:09.295Z,99.50
2023-03-12T04:00:58.756Z,99.40
2023-03-12T04:03:48.368Z,99.40
2023-03-12T04:06:37.823Z,99.20
2023-03-12T04:09:30.559Z,99.10
2023-03-12T04:12:19.613Z,98.80
2023-03-12T04:15:08.670Z,98.60
2023-03-12T04:17:56.772Z,98.50
2023-03-12T04:20:47.604Z,98.40
2023-03-12T04:23:35.853Z,98.40
2023-03-12T04:26:26.750Z,98.40
2023-03-12T04:29:17.064Z,98.20
2023-03-12T04:32:05.192Z,98.40
2023-03-12T04:34:54.928Z,98.50
2023-03-12T04:37:42.914Z,98.60
2023-03-12T04:40:31.901Z,98.50
2023-03-12T04:43:21.537Z,98.30
2023-03-12T04:46:12.207Z,98.10
2023-03-12T04:49:03.166Z,98.00
2023-03-12T04:51:52.501Z,98.00
2023-03-12T04:54:42.925Z,97.90
2023-03-12T04:57:30.671Z,97.80
2023-03-12T05:00:22.136Z,97.70
2023-03-12T05:03:11.626Z,97.60
2023-03-12T05:05:59.702Z,97.60
2023-03-12T05:08:47.463Z,97.70
2023-03-12T05:11:39.582Z,97.80
2023-03-12T05:14:28.144Z,97.80
2023-03-12T05:17:17.501Z,97.80
2023-03-12T05:20:07.352Z,97.90
2023-03-12T05:22:56.926Z,98.10
2023-03-12T05:25:46.264Z,98.40
2023-03-12T05:28:36.425Z,98.60
2023-03-12T05:31:28.063Z,98.70
2023-03-12T05:34:18.946Z,98.90
2023-03-12T05:37:08.957Z,98.90
2023-03-12T05:39:58.423Z,99.10
2023-03-12T05:42:47.988Z,99.30
2023-03-12T05:45:37.456Z,99.60
2023-03-12T05:48:26.868Z,99.90
2023-03-12T05:51:16.875Z,99.90
2023-03-12T05:54:05.280Z,99.90
2023-03-12T05:56:53.368Z,99.90
2023-03-12T05:59:44.839Z,99.90
2023-03-12T06:02:34.258Z,99.90
2023-03-12T06:05:24.008Z,99.90
2023-03-12T06:08:15.060Z,99.90
2023-03-12T06:11:04.739Z,99.90
2023-03-12T06:13:54.719Z,99.90
2023-03-12T06:16:44.186Z,99.90
2023-03-12T06:19:33.594Z,99.90
2023-03-12T06:22:23.157Z,99.90
2023-03-12T06:25:13.985Z,99.90
2023-03-12T06:28:04.180Z,99.90
2023-03-12T06:30:55.087Z,99.90
2023-03-12T06:33:42.975Z,99.90
2023-03-12T06:36:30.587Z,99.90
2023-03-12T06:39:19.928Z,99.90
2023-03-12T06:42:12.846Z,99.90
2023-03-12T06:45:02.140Z,99.90
2023-03-12T06:47:51.426Z,99.90
2023-03-12T06:50:40.728Z,99.90
2023-03-12T06:53:30.195Z,99.90
2023-03-12T06:56:19.546Z,99.90
2023-03-12T06:59:10.350Z,99.90
2023-03-12T07:01:59.760Z,99.90
2023-03-12T07:04:47.793Z,99.90
2023-03-12T07:07:35.253Z,99.90
2023-03-12T07:10:22.958Z,99.90
2023-03-12T07:13:12.986Z,99.90
2023-03-12T07:16:04.560Z,99.90
2023-03-12T07:18:53.948Z,99.90
2023-03-12T07:21:43.221Z,99.90
2023-03-12T07:24:32.562Z,99.90
2023-03-12T07:27:21.932Z,99.90
2023-03-12T07:30:13.148Z,99.90
2023-03-12T07:33:05.974Z,99.90
2023-03-12T07:35:55.458Z,99.90
2023-03-12T07:38:44.845Z,99.90
2023-03-12T07:41:35.330Z,99.90
2023-03-12T07:44:26.367Z,99.90
2023-03-12T07:47:24.251Z,99.90
2023-03-12T07:50:16.104Z,99.90
2023-03-12T07:53:05.820Z,99.90
2023-03-12T07:55:57.726Z,99.90
2023-03-12T07:58:47.319Z,99.00
2023-03-12T08:01:36.870Z,96.70
2023-03-12T08:04:26.408Z,93.90
2023-03-12T08:07:17.243Z,91.00
2023-03-12T08:10:09.988Z,85.10
2023-03-12T08:12:59.622Z,83.60
2023-03-12T08:15:50.285Z,87.20
2023-03-12T08:18:40.213Z,90.80
2023-03-12T08:21:29.564Z,93.50
2023-03-12T08:24:21.564Z,95.50
2023-03-12T08:27:12.155Z,95.50
2023-03-12T08:30:01.519Z,99.10
2023-03-12T08:32:51.075Z,98.90
2023-03-12T08:35:40.655Z,98.60
2023-03-12T08:38:30.121Z,97.10
2023-03-12T08:41:20.953Z,95.30
2023-03-12T08:44:10.673Z,92.20
2023-03-12T08:47:00.101Z,90.20
2023-03-12T08:49:49.459Z,85.90
2023-03-12T08:52:38.965Z,82.60
2023-03-12T08:55:29.106Z,81.40
2023-03-12T08:58:19.785Z,80.30
2023-03-12T09:01:11.687Z,78.40
2023-03-12T09:04:02.481Z,76.60
2023-03-12T09:06:51.828Z,77.20
2023-03-12T09:09:41.192Z,74.60
2023-03-12T09:12:30.493Z,72.80
2023-03-12T09:15:21.289Z,70.60
2023-03-12T09:18:11.074Z,69.10
2023-03-12T09:21:01.881Z,69.80
2023-03-12T09:23:51.671Z,70.80
2023-03-12T09:26:40.976Z,73.00
2023-03-12T09:29:30.403Z,74.90
2023-03-12T09:32:21.250Z,75.00
2023-03-12T09:35:10.947Z,75.00
2023-03-12T09:38:01.174Z,77.00
2023-03-12T09:40:50.903Z,78.50
2023-03-12T09:43:44.846Z,80.10
2023-03-12T09:46:40.267Z,77.70
2023-03-12T09:49:37.603Z,76.00
2023-03-12T09:52:33.170Z,73.30
2023-03-12T09:55:24.130Z,71.80
2023-03-12T09:58:16.012Z,70.90
2023-03-12T10:01:27.604Z,68.60
2023-03-12T10:04:58.505Z,66.00
2023-03-12T10:07:53.388Z,65.10
2023-03-12T10:10:55.214Z,67.10
2023-03-12T10:13:58.031Z,64.90
2023-03-12T10:17:13.298Z,65.20
2023-03-12T10:20:33.898Z,62.60
2023-03-12T10:23:49.416Z,62.70
2023-03-12T10:26:41.762Z,62.20
2023-03-12T10:29:34.321Z,63.20
2023-03-12T10:32:30.776Z,62.30
2023-03-12T10:35:24.329Z,61.50
2023-03-12T10:38:19.436Z,60.80
2023-03-12T10:41:17.127Z,60.70
2023-03-12T10:44:10.657Z,59.80
2023-03-12T10:47:08.402Z,61.10
2023-03-12T10:50:16.300Z,61.20
2023-03-12T10:53:23.783Z,59.30
2023-03-12T10:56:15.898Z,58.10
2023-03-12T10:59:22.112Z,58.00
2023-03-12T11:02:32.979Z,56.90
2023-03-12T11:05:26.411Z,56.10
2023-03-12T11:08:27.165Z,57.60
2023-03-12T11:11:33.058Z,56.60
2023-03-12T11:14:25.150Z,56.00
2023-03-12T11:17:24.210Z,57.40
2023-03-12T11:20:31.487Z,56.40
2023-03-12T11:23:27.833Z,55.60
2023-03-12T11:26:22.333Z,56.20
2023-03-12T11:29:24.096Z,55.90
2023-03-12T11:32:20.103Z,55.50
2023-03-12T11:35:12.981Z,55.50
2023-03-12T11:38:10.548Z,55.40
2023-03-12T11:41:20.672Z,55.40
2023-03-12T11:44:28.876Z,54.30
2023-03-12T11:47:41.097Z,54.10
2023-03-12T11:50:48.683Z,53.90
2023-03-12T11:54:16.362Z,54.00
2023-03-12T11:57:13.145Z,53.30
2023-03-12T12:00:14.799Z,54.00
2023-03-12T12:03:45.639Z,54.10
2023-03-12T12:06:48.345Z,53.60
2023-03-12T12:09:45.956Z,54.40
2023-03-12T12:12:51.417Z,54.20
2023-03-12T12:15:53.209Z,54.00
2023-03-12T12:18:59.734Z,54.10
2023-03-12T12:22:05.180Z,54.10
2023-03-12T12:25:29.326Z,54.30
2023-03-12T12:28:54.480Z,53.50
2023-03-12T12:31:52.131Z,52.90
2023-03-12T12:35:07.359Z,53.50
2023-03-12T12:38:00.110Z,52.50
2023-03-12T12:40:54.488Z,53.00
2023-03-12T12:43:49.797Z,52.40
2023-03-12T12:46:43.608Z,51.80
2023-03-12T12:49:40.683Z,51.50
2023-03-12T12:52:30.878Z,51.40
2023-03-12T12:55:27.170Z,51.80
2023-03-12T12:58:22.437Z,51.60
2023-03-12T13:01:15.561Z,51.70
2023-03-12T13:04:12.082Z,52.00
2023-03-12T13:07:35.091Z,52.10
2023-03-12T13:10:57.566Z,52.10
2023-03-12T13:14:14.348Z,50.40
2023-03-12T13:17:32.097Z,51.30
2023-03-12T13:20:23.801Z,50.50
2023-03-12T13:23:34.289Z,51.20
2023-03-12T13:26:32.280Z,49.90
2023-03-12T13:29:37.673Z,50.50
2023-03-12T13:33:07.444Z,50.70
2023-03-12T13:36:10.885Z,50.50
2023-03-12T13:39:21.170Z,50.60
2023-03-12T13:42:37.663Z,51.00
2023-03-12T13:45:31.877Z,50.40
2023-03-12T13:48:24.010Z,50.80
2023-03-12T13:51:18.886Z,51.00
2023-03-12T13:54:18.835Z,50.80
2023-03-12T13:57:13.847Z,50.90
2023-03-12T14:00:07.137Z,50.60
2023-03-12T14:03:21.444Z,50.80
2023-03-12T14:06:13.952Z,50.90
2023-03-12T14:09:24.355Z,51.00
2023-03-12T14:12:23.638Z,51.00
2023-03-12T14:15:26.682Z,51.00
2023-03-12T14:18:22.747Z,51.10
2023-03-12T14:21:16.579Z,51.10
2023-03-12T14:24:19.403Z,51.20
2023-03-12T14:27:16.682Z,51.30
2023-03-12T14:30:14.769Z,51.80
2023-03-12T14:33:05.378Z,52.10
2023-03-12T14:36:02.942Z,52.20
2023-03-12T14:38:57.486Z,52.50
2023-03-12T14:41:55.989Z,52.50
2023-03-12T14:45:12.880Z,52.90
2023-03-12T14:48:02.435Z,53.30
2023-03-12T14:50:51.941Z,53.30
2023-03-12T14:53:41.269Z,53.40
2023-03-12T14:56:35.146Z,53.60
2023-03-12T14:59:32.202Z,53.80
2023-03-12T15:02:23.011Z,53.90
2023-03-12T15:05:19.465Z,53.90
2023-03-12T15:08:08.947Z,54.10
2023-03-12T15:11:00.428Z,54.00
2023-03-12T15:13:50.387Z,53.90
2023-03-12T15:16:41.828Z,54.00
2023-03-12T15:19:36.610Z,54.10
2023-03-12T15:22:28.865Z,54.30
2023-03-12T15:25:26.606Z,54.40
2023-03-12T15:28:29.931Z,54.70
2023-03-12T15:31:19.349Z,54.80
2023-03-12T15:34:08.444Z,54.50
2023-03-12T15:36:56.100Z,54.70
2023-03-12T15:39:51.400Z,54.80
2023-03-12T15:42:43.035Z,54.90
2023-03-12T15:45:38.802Z,54.90
2023-03-12T15:48:31.120Z,55.00
2023-03-12T15:51:36.057Z,55.10
2023-03-12T15:54:28.372Z,55.30
2023-03-12T15:57:25.866Z,55.10
2023-03-12T16:00:24.701Z,55.30
2023-03-12T16:03:18.391Z,55.20
2023-03-12T16:06:12.683Z,56.20
2023-03-12T16:09:06.194Z,56.10
2023-03-12T16:11:56.650Z,56.30
2023-03-12T16:14:47.560Z,56.20
2023-03-12T16:17:35.047Z,56.30
2023-03-12T16:20:22.700Z,56.50
2023-03-12T16:23:12.671Z,56.60
2023-03-12T16:26:06.288Z,56.50
2023-03-12T16:28:55.872Z,56.80
2023-03-12T16:31:43.832Z,56.80
2023-03-12T16:34:31.442Z,56.80
2023-03-12T16:37:20.814Z,56.80
2023-03-12T16:40:14.499Z,57.00
2023-03-12T16:43:08.899Z,57.20
2023-03-12T16:45:58.345Z,57.40
2023-03-12T16:48:53.567Z,57.50
2023-03-12T16:51:41.357Z,57.90
2023-03-12T16:54:29.028Z,57.70
2023-03-12T16:57:24.642Z,57.90
2023-03-12T17:00:18.882Z,58.20
2023-03-12T17:03:07.809Z,58.20
2023-03-12T17:05:55.470Z,58.20
2023-03-12T17:08:45.266Z,58.40
2023-03-12T17:11:33.829Z,58.40
2023-03-12T17:14:24.027Z,58.70
2023-03-12T17:17:14.743Z,58.80
2023-03-12T17:20:02.431Z,59.10
2023-03-12T17:22:50.185Z,59.30
2023-03-12T17:25:41.928Z,59.40
2023-03-12T17:28:31.292Z,59.50
2023-03-12T17:31:19.131Z,59.80
2023-03-12T17:34:08.851Z,60.00
2023-03-12T17:36:56.476Z,60.10
2023-03-12T17:39:44.050Z,60.10
2023-03-12T17:42:34.665Z,60.30
2023-03-12T17:45:22.889Z,60.50
2023-03-12T17:48:10.762Z,60.80
2023-03-12T17:51:00.095Z,60.80
2023-03-12T17:53:49.786Z,61.70
2023-03-12T17:56:39.218Z,61.10
2023-03-12T17:59:26.942Z,61.30
2023-03-12T18:02:16.261Z,61.50
2023-03-12T18:05:04.057Z,61.80
2023-03-12T18:07:53.155Z,62.20
2023-03-12T18:10:42.576Z,62.50
2023-03-12T18:13:30.296Z,62.40
2023-03-12T18:16:20.165Z,62.60
2023-03-12T18:19:09.551Z,63.00
2023-03-12T18:21:57.119Z,63.00
2023-03-12T18:24:46.089Z,63.20
2023-03-12T18:27:33.752Z,63.40
2023-03-12T18:30:23.128Z,63.30
2023-03-12T18:33:12.421Z,63.60
2023-03-12T18:36:01.998Z,64.10
2023-03-12T18:38:49.553Z,64.00
2023-03-12T18:41:41.935Z,64.20
2023-03-12T18:44:31.738Z,64.50
2023-03-12T18:47:21.101Z,64.60
2023-03-12T18:50:12.453Z,64.80
2023-03-12T18:53:01.789Z,65.00
2023-03-12T18:55:55.424Z,65.00
2023-03-12T18:58:44.368Z,65.50
2023-03-12T19:01:32.001Z,65.70
2023-03-12T19:04:22.018Z,66.30
2023-03-12T19:07:11.572Z,65.80
2023-03-12T19:10:04.274Z,65.90
2023-03-12T19:12:54.322Z,66.00
2023-03-12T19:15:45.211Z,66.00
2023-03-12T19:18:34.543Z,66.40
2023-03-12T19:21:24.073Z,66.40
2023-03-12T19:24:13.364Z,66.50
2023-03-12T19:27:01.186Z,66.70
2023-03-12T19:29:50.544Z,66.90
2023-03-12T19:32:43.626Z,67.20
2023-03-12T19:35:32.057Z,67.80
2023-03-12T19:38:21.605Z,67.50
2023-03-12T19:41:11.319Z,67.70
2023-03-12T19:44:00.604Z,68.20
2023-03-12T19:46:49.907Z,68.60
2023-03-12T19:49:38.978Z,68.60
2023-03-12T19:52:28.360Z,69.10
2023-03-12T19:55:17.859Z,69.10
2023-03-12T19:58:08.204Z,69.40
2023-03-12T20:01:00.536Z,69.40
2023-03-12T20:03:49.892Z,70.20
2023-03-12T20:06:39.192Z,69.90
2023-03-12T20:09:26.824Z,70.40
2023-03-12T20:12:14.672Z,70.50
2023-03-12T20:15:04.786Z,70.90
2023-03-12T20:17:56.827Z,71.00
2023-03-12T20:20:48.181Z,71.70
2023-03-12T20:23:38.874Z,72.40
2023-03-12T20:26:28.151Z,72.80
2023-03-12T20:29:17.457Z,72.40
2023-03-12T20:32:07.060Z,72.50
2023-03-12T20:34:56.641Z,72.90
2023-03-12T20:37:45.962Z,72.00
2023-03-12T20:40:35.120Z,72.50
2023-03-12T20:43:22.770Z,73.10
2023-03-12T20:46:10.853Z,72.90
2023-03-12T20:49:00.182Z,73.20
2023-03-12T20:51:49.503Z,73.50
2023-03-12T20:54:39.269Z,73.60
2023-03-12T20:57:30.260Z,73.80
2023-03-12T21:00:19.180Z,74.70
2023-03-12T21:03:06.448Z,74.30
2023-03-12T21:05:55.176Z,75.10
2023-03-12T21:08:44.520Z,75.70
2023-03-12T21:11:33.928Z,75.80
2023-03-12T21:14:22.831Z,76.10
2023-03-12T21:17:13.691Z,76.50
2023-03-12T21:20:04.172Z,76.80
2023-03-12T21:22:53.495Z,76.70
2023-03-12T21:25:42.992Z,76.80
2023-03-12T21:28:33.282Z,76.90
2023-03-12T21:31:22.707Z,77.10
2023-03-12T21:34:12.131Z,78.10
2023-03-12T21:37:01.397Z,77.70
2023-03-12T21:39:50.634Z,77.80
2023-03-12T21:42:40.101Z,78.10
2023-03-12T21:45:29.504Z,78.60
2023-03-12T21:48:20.280Z,78.50
2023-03-12T21:51:12.563Z,79.00
2023-03-12T21:54:01.910Z,79.20
2023-03-12T21:56:50.687Z,78.90
2023-03-12T21:59:38.536Z,79.50
2023-03-12T22:02:29.512Z,79.60
2023-03-12T22:05:20.176Z,79.80
2023-03-12T22:08:09.489Z,80.30
2023-03-12T22:10:58.772Z,79.50
2023-03-12T22:13:48.594Z,79.90
2023-03-12T22:16:38.026Z,80.10
2023-03-12T22:19:27.452Z,80.40
2023-03-12T22:22:18.374Z,80.50
2023-03-12T22:25:08.572Z,81.00
2023-03-12T22:27:57.855Z,80.60
2023-03-12T22:30:47.387Z,80.60
2023-03-12T22:33:38.452Z,80.90
2023-03-12T22:36:28.330Z,81.20
2023-03-12T22:39:18.100Z,81.40
2023-03-12T22:42:06.306Z,82.10
2023-03-12T22:44:55.651Z,82.00
2023-03-12T22:47:45.286Z,82.20
2023-03-12T22:50:34.839Z,82.40
2023-03-12T22:53:24.500Z,82.90
2023-03-12T22:56:14.772Z,82.90
2023-03-12T22:59:04.200Z,83.60
2023-03-12T23:01:51.712Z,82.90
2023-03-12T23:04:39.360Z,83.20
2023-03-12T23:07:28.961Z,83.50
2023-03-12T23:10:16.565Z,84.10
2023-03-12T23:13:09.061Z,83.60
2023-03-12T23:16:03.764Z,84.30
2023-03-12T23:18:51.868Z,85.10
2023-03-12T23:21:39.386Z,84.00
2023-03-12T23:24:27.045Z,84.00
2023-03-12T23:27:16.513Z,84.10
2023-03-12T23:30:06.966Z,84.30
2023-03-12T23:32:54.700Z,85.10
2023-03-12T23:35:42.558Z,85.00
2023-03-12T23:38:32.989Z,85.00
2023-03-12T23:41:22.947Z,84.80
2023-03-12T23:44:10.594Z,85.20
2023-03-12T23:46:59.518Z,85.20
2023-03-12T23:49:48.823Z,85.60
2023-03-12T23:52:36.559Z,85.00
2023-03-12T23:55:25.932Z,84.70
2023-03-12T23:58:13.452Z,84.40
